Time;durP1;ratioP1;P1;durP2;ratioP2;P2;SDS_P1;SDS_P2;PMS_P1;PMS_P2;Temp;Humidity;BMP_temperature;BMP_pressure;BME280_temperature;BME280_humidity;BME280_pressure;Samples;Min_cycle;Max_cycle;Signal;HPM_P1;HPM_P2
2022/09/04 00:00:18;;;;;;;2.05;1.15;;;21.20;58.80;;;;;;5092807;28;20031;-72
2022/09/04 00:02:55;;;;;;;0.93;0.82;;;21.20;58.90;;;;;;5099590;28;20409;-69
2022/09/04 00:05:41;;;;;;;2.70;1.02;;;21.10;58.80;;;;;;5098719;28;20028;-68
2022/09/04 00:08:45;;;;;;;1.88;1.73;;;21.10;58.90;;;;;;5095163;28;20471;-69
2022/09/04 00:11:36;;;;;;;1.05;1.00;;;21.10;59.00;;;;;;5010051;28;20075;-68
2022/09/04 00:14:08;;;;;;;1.87;1.67;;;21.00;59.20;;;;;;5087201;28;20043;-68
2022/09/04 00:16:41;;;;;;;1.45;1.30;;;21.00;59.40;;;;;;5102515;28;20051;-68
2022/09/04 00:19:34;;;;;;;1.20;1.10;;;21.00;59.50;;;;;;5104567;28;20540;-68
2022/09/04 00:22:01;;;;;;;;;;;21.00;59.50;;;;;;5058968;28;20383;-68
2022/09/04 00:24:50;;;;;;;3.08;1.60;;;20.90;59.70;;;;;;5090356;28;19912;-73
2022/09/04 00:27:25;;;;;;;1.52;1.17;;;20.90;59.80;;;;;;5088414;28;20028;-73
2022/09/04 00:30:03;;;;;;;1.75;1.08;;;20.90;59.90;;;;;;5088821;28;20394;-68
2022/09/04 00:32:44;;;;;;;1.98;1.42;;;20.90;60.00;;;;;;5089895;28;20027;-68
2022/09/04 00:35:19;;;;;;;2.17;1.98;;;20.90;60.10;;;;;;5089043;28;20085;-67
2022/09/04 00:38:14;;;;;;;1.30;1.17;;;20.90;60.50;;;;;;5089145;28;20499;-72
2022/09/04 00:40:51;;;;;;;2.05;1.00;;;20.90;60.70;;;;;;5085487;28;20027;-72
2022/09/04 00:43:44;;;;;;;1.40;1.27;;;20.80;60.80;;;;;;5090111;28;20054;-71
2022/09/04 00:46:47;;;;;;;1.70;1.33;;;20.80;60.80;;;;;;5095183;28;20164;-67
2022/09/04 00:49:35;;;;;;;1.50;1.33;;;20.80;60.90;;;;;;5090037;28;20433;-68
2022/09/04 00:52:18;;;;;;;1.98;1.40;;;20.80;61.30;;;;;;5089132;28;20136;-68
2022/09/04 00:55:06;;;;;;;1.40;1.20;;;20.80;61.40;;;;;;5090213;28;20471;-68
2022/09/04 00:57:37;;;;;;;1.50;1.25;;;20.70;61.40;;;;;;5110773;27;20498;-72
2022/09/04 01:00:07;;;;;;;1.30;1.20;;;20.70;61.50;;;;;;5089938;28;20061;-67
2022/09/04 01:02:57;;;;;;;2.25;1.40;;;20.70;61.40;;;;;;5092454;28;20016;-68
2022/09/04 01:05:44;;;;;;;1.45;1.17;;;20.70;61.50;;;;;;5088156;28;20020;-72
2022/09/04 01:08:31;;;;;;;1.42;0.93;;;20.70;61.60;;;;;;5092783;28;20023;-72
2022/09/04 01:11:26;;;;;;;2.40;1.38;;;20.60;61.70;;;;;;5088743;28;20073;-68
2022/09/04 01:14:13;;;;;;;0.90;0.90;;;20.60;61.90;;;;;;5088965;28;20267;-68
2022/09/04 01:16:58;;;;;;;2.83;1.40;;;20.60;62.00;;;;;;5092866;28;20089;-72
2022/09/04 01:19:48;;;;;;;2.38;1.38;;;20.60;62.20;;;;;;5087887;28;20077;-68
2022/09/04 01:22:45;;;;;;;1.52;1.25;;;20.60;62.40;;;;;;5090461;28;20154;-68
2022/09/04 01:25:49;;;;;;;3.58;1.50;;;20.60;62.40;;;;;;5086627;28;20115;-68
2022/09/04 01:28:24;;;;;;;2.20;1.55;;;20.50;62.50;;;;;;5097672;28;20028;-68
2022/09/04 01:31:27;;;;;;;2.47;1.80;;;20.50;62.80;;;;;;5090875;28;20028;-73
2022/09/04 01:34:35;;;;;;;1.77;0.98;;;20.50;62.90;;;;;;5103753;28;20034;-72
2022/09/04 01:37:36;;;;;;;1.58;1.48;;;20.50;63.00;;;;;;5085318;28;20502;-73
2022/09/04 01:40:37;;;;;;;1.58;1.48;;;20.50;63.90;;;;;;5088328;28;20036;-72
2022/09/04 01:43:22;;;;;;;3.65;1.73;;;20.50;63.80;;;;;;5088543;28;20382;-72
2022/09/04 01:46:06;;;;;;;3.15;2.17;;;20.40;64.10;;;;;;5088055;28;20023;-73
2022/09/04 01:48:51;;;;;;;1.40;1.30;;;20.50;64.70;;;;;;5090752;28;20031;-68
2022/09/04 01:51:46;;;;;;;1.27;1.17;;;20.50;64.10;;;;;;5083635;28;20029;-73
2022/09/04 01:54:34;;;;;;;1.60;1.20;;;20.50;64.30;;;;;;5080448;28;20051;-73
2022/09/04 01:57:07;;;;;;;1.50;1.40;;;20.50;64.20;;;;;;5086485;28;20036;-68
2022/09/04 01:59:46;;;;;;;5.50;1.88;;;20.50;64.20;;;;;;5086285;28;20032;-73
2022/09/04 02:02:46;;;;;;;2.03;1.52;;;20.50;64.30;;;;;;5085112;28;20028;-73
2022/09/04 02:05:15;;;;;;;2.35;1.85;;;20.50;64.30;;;;;;5098031;28;20065;-73
2022/09/04 02:07:50;;;;;;;2.63;1.67;;;20.40;64.50;;;;;;5083890;28;20051;-69
2022/09/04 02:10:55;;;;;;;1.58;1.48;;;20.40;64.60;;;;;;5089164;28;20066;-72
2022/09/04 02:14:03;;;;;;;1.73;1.40;;;20.40;64.50;;;;;;5083388;28;20047;-73
2022/09/04 02:16:41;;;;;;;1.92;1.50;;;20.40;64.70;;;;;;5086921;28;20035;-73
2022/09/04 02:19:28;;;;;;;1.45;1.35;;;20.30;65.00;;;;;;5087526;28;20024;-72
2022/09/04 02:22:06;;;;;;;1.75;1.27;;;20.20;64.90;;;;;;5086248;28;20023;-68
2022/09/04 02:24:43;;;;;;;15.65;2.78;;;20.20;65.00;;;;;;5091226;28;20015;-73
2022/09/04 02:27:08;;;;;;;3.10;1.65;;;20.20;65.00;;;;;;5089707;28;20455;-73
2022/09/04 02:29:58;;;;;;;1.60;1.38;;;20.20;65.20;;;;;;5090199;28;20372;-71
2022/09/04 02:32:30;;;;;;;1.30;1.20;;;20.20;65.10;;;;;;5089126;28;20032;-71
2022/09/04 02:35:14;;;;;;;3.00;2.50;;;20.10;65.20;;;;;;5092446;28;20030;-71
2022/09/04 02:38:07;;;;;;;2.10;1.63;;;20.10;65.40;;;;;;5091472;28;20123;-72
2022/09/04 02:40:48;;;;;;;2.33;1.90;;;20.10;65.40;;;;;;5090023;28;20584;-72
2022/09/04 02:43:25;;;;;;;1.50;1.40;;;20.00;65.50;;;;;;5101405;28;20028;-72
2022/09/04 02:45:58;;;;;;;2.03;1.83;;;19.90;65.70;;;;;;5092130;28;20020;-71
2022/09/04 02:48:51;;;;;;;2.90;1.60;;;19.90;65.80;;;;;;5105619;28;20178;-72
2022/09/04 02:51:16;;;;;;;2.35;1.90;;;19.90;65.80;;;;;;5061126;28;20047;-72
2022/09/04 02:54:18;;;;;;;2.70;1.33;;;19.90;66.00;;;;;;5090457;28;20028;-72
2022/09/04 02:56:57;;;;;;;1.73;1.55;;;19.80;65.90;;;;;;5090162;28;20054;-67
2022/09/04 02:59:43;;;;;;;2.38;1.83;;;19.80;66.30;;;;;;5093305;28;20024;-72
2022/09/04 03:02:20;;;;;;;2.25;1.60;;;19.80;66.30;;;;;;5091811;28;20491;-72
2022/09/04 03:04:59;;;;;;;1.88;1.77;;;19.70;67.10;;;;;;5098261;28;20016;-72
2022/09/04 03:07:45;;;;;;;2.38;1.65;;;19.70;66.80;;;;;;5090287;28;20109;-72
2022/09/04 03:10:17;;;;;;;1.83;1.38;;;19.80;66.80;;;;;;5091450;28;20115;-72
2022/09/04 03:12:47;;;;;;;1.70;1.10;;;19.70;66.70;;;;;;5090390;28;20061;-68
2022/09/04 03:15:49;;;;;;;2.03;1.55;;;19.70;66.80;;;;;;5091452;28;20032;-67
2022/09/04 03:18:26;;;;;;;2.03;1.67;;;19.70;66.70;;;;;;5090154;28;20036;-68
2022/09/04 03:21:11;;;;;;;2.53;1.73;;;19.70;66.70;;;;;;5087456;28;20382;-68
2022/09/04 03:23:58;;;;;;;1.77;1.55;;;19.60;66.80;;;;;;5092954;28;20081;-68
2022/09/04 03:26:29;;;;;;;2.20;1.63;;;19.60;67.10;;;;;;5092182;28;20160;-68
2022/09/04 03:29:20;;;;;;;2.70;1.80;;;19.60;67.20;;;;;;5092162;28;20407;-68
2022/09/04 03:32:25;;;;;;;2.53;2.07;;;19.60;67.10;;;;;;5091167;28;20387;-68
2022/09/04 03:35:16;;;;;;;2.40;2.20;;;19.60;67.20;;;;;;5093929;28;20419;-68
2022/09/04 03:38:00;;;;;;;1.67;1.58;;;19.50;67.30;;;;;;5086158;28;20023;-68
2022/09/04 03:40:34;;;;;;;2.00;1.80;;;19.50;67.50;;;;;;5086467;28;20336;-68
2022/09/04 03:43:02;;;;;;;2.28;1.77;;;19.50;67.40;;;;;;5088670;28;20499;-68
2022/09/04 03:45:37;;;;;;;2.03;1.88;;;19.50;67.40;;;;;;5090827;28;20539;-72
2022/09/04 03:48:35;;;;;;;1.85;1.75;;;19.50;67.50;;;;;;5088670;28;20047;-68
2022/09/04 03:51:16;;;;;;;3.28;1.88;;;19.50;67.40;;;;;;5082601;28;20035;-72
2022/09/04 03:53:58;;;;;;;2.17;1.38;;;19.40;67.50;;;;;;5102245;28;20395;-67
2022/09/04 03:56:48;;;;;;;1.40;1.30;;;19.40;67.50;;;;;;5085706;28;20067;-68
2022/09/04 03:59:52;;;;;;;4.03;2.53;;;19.40;67.50;;;;;;5088801;28;20482;-68
2022/09/04 04:02:53;;;;;;;2.63;1.98;;;19.40;67.60;;;;;;5088543;28;20051;-68
2022/09/04 04:05:40;;;;;;;2.03;1.73;;;19.30;67.80;;;;;;5047754;28;21506;-68
2022/09/04 04:08:08;;;;;;;1.67;1.55;;;19.30;67.80;;;;;;5088546;28;20050;-68
2022/09/04 04:10:34;;;;;;;2.92;2.08;;;19.20;67.80;;;;;;5087039;28;20035;-67
2022/09/04 04:13:27;;;;;;;2.40;2.03;;;19.20;67.90;;;;;;5091698;28;20030;-68
2022/09/04 04:16:20;;;;;;;1.77;1.65;;;19.20;68.00;;;;;;5086795;28;20032;-68
2022/09/04 04:19:15;;;;;;;2.28;1.98;;;19.20;68.10;;;;;;5088204;28;20051;-67
2022/09/04 04:22:16;;;;;;;5.03;2.20;;;19.20;68.20;;;;;;5089502;28;20077;-68
2022/09/04 04:24:47;;;;;;;2.90;2.60;;;19.20;68.30;;;;;;5093551;28;20032;-72
2022/09/04 04:27:24;;;;;;;2.47;2.20;;;19.10;68.60;;;;;;5086036;28;20027;-68
2022/09/04 04:29:55;;;;;;;2.80;1.98;;;19.20;68.60;;;;;;5090669;28;20024;-68
2022/09/04 04:32:36;;;;;;;1.48;1.38;;;19.20;68.70;;;;;;5092463;28;20462;-72
2022/09/04 04:35:14;;;;;;;2.97;2.58;;;19.20;68.60;;;;;;5095615;28;20038;-68
2022/09/04 04:37:59;;;;;;;3.13;2.13;;;19.10;68.80;;;;;;5090044;28;20023;-71
2022/09/04 04:40:39;;;;;;;2.55;1.73;;;19.10;68.90;;;;;;5099840;28;20031;-72
2022/09/04 04:43:23;;;;;;;3.08;2.05;;;19.10;68.80;;;;;;5101730;28;21225;-68
2022/09/04 04:46:14;;;;;;;3.65;2.33;;;19.10;68.70;;;;;;5090006;28;20114;-67
2022/09/04 04:49:10;;;;;;;4.82;2.55;;;19.00;68.60;;;;;;5091285;28;20024;-72
2022/09/04 04:52:14;;;;;;;2.72;2.13;;;19.00;68.80;;;;;;5088671;28;20106;-68
2022/09/04 04:54:55;;;;;;;1.70;1.55;;;19.00;68.90;;;;;;5077480;28;20028;-72
2022/09/04 04:57:28;;;;;;;4.82;2.72;;;19.00;69.00;;;;;;5087776;28;20048;-68
2022/09/04 05:00:14;;;;;;;3.25;2.08;;;19.00;68.90;;;;;;5089594;28;20021;-71
2022/09/04 05:02:50;;;;;;;2.03;1.60;;;19.00;68.80;;;;;;5095610;28;20034;-72
2022/09/04 05:05:16;;;;;;;3.17;2.25;;;18.90;69.00;;;;;;5092122;28;20015;-68
2022/09/04 05:08:22;;;;;;;2.70;2.25;;;19.00;69.10;;;;;;5101380;28;20031;-72
2022/09/04 05:11:15;;;;;;;2.20;1.77;;;19.00;69.10;;;;;;5065087;28;20469;-72
2022/09/04 05:14:34;;;;;;;3.67;2.53;;;19.00;69.10;;;;;;5087878;28;20024;-68
2022/09/04 05:17:13;;;;;;;3.42;2.55;;;19.00;69.00;;;;;;4990694;28;20434;-68
2022/09/04 05:19:58;;;;;;;2.38;2.05;;;19.00;69.40;;;;;;5089451;28;20330;-68
2022/09/04 05:22:33;;;;;;;3.80;2.55;;;19.00;69.30;;;;;;5088672;28;20403;-68
2022/09/04 05:25:23;;;;;;;2.47;1.60;;;19.00;69.60;;;;;;5092384;28;20020;-72
2022/09/04 05:28:20;;;;;;;5.15;2.30;;;19.10;69.80;;;;;;5089079;28;20028;-72
2022/09/04 05:30:55;;;;;;;2.58;2.38;;;19.10;69.90;;;;;;5032805;28;20098;-72
2022/09/04 05:33:44;;;;;;;2.38;2.17;;;19.10;69.90;;;;;;5088342;28;20042;-68
2022/09/04 05:36:36;;;;;;;3.67;2.70;;;19.20;69.80;;;;;;5084424;28;20039;-68
2022/09/04 05:39:11;;;;;;;5.07;3.08;;;19.20;69.80;;;;;;5065874;28;20088;-68
2022/09/04 05:42:12;;;;;;;2.22;2.03;;;19.20;69.60;;;;;;5089445;28;20478;-67
2022/09/04 05:45:17;;;;;;;2.55;2.25;;;19.30;69.60;;;;;;5089389;28;20024;-68
2022/09/04 05:47:55;;;;;;;4.28;2.92;;;19.30;69.90;;;;;;5089393;28;20491;-68
2022/09/04 05:50:31;;;;;;;4.47;3.13;;;19.30;69.90;;;;;;5098836;28;20044;-72
2022/09/04 05:53:00;;;;;;;3.67;3.20;;;19.40;69.70;;;;;;5094287;28;20058;-68
2022/09/04 05:55:50;;;;;;;3.17;2.80;;;19.50;70.00;;;;;;5088059;28;20032;-69
2022/09/04 05:58:52;;;;;;;4.38;2.95;;;19.50;70.10;;;;;;5091951;28;20504;-72
2022/09/04 06:01:48;;;;;;;5.03;3.15;;;19.50;70.50;;;;;;5100544;28;20023;-72
2022/09/04 06:04:13;;;;;;;4.57;2.92;;;19.50;70.60;;;;;;5091641;28;20032;-68
2022/09/04 06:07:03;;;;;;;3.50;2.20;;;19.50;70.90;;;;;;5091582;28;20031;-68
2022/09/04 06:09:47;;;;;;;3.65;2.78;;;19.60;70.90;;;;;;5093090;28;20039;-72
2022/09/04 06:12:23;;;;;;;3.58;3.17;;;19.60;71.00;;;;;;5091166;28;20024;-68
2022/09/04 06:15:02;;;;;;;3.35;3.05;;;19.70;71.30;;;;;;5091396;28;20024;-72
2022/09/04 06:17:43;;;;;;;3.42;2.63;;;19.70;71.30;;;;;;5100196;28;21312;-72
2022/09/04 06:20:33;;;;;;;3.22;2.75;;;19.80;71.30;;;;;;5102056;28;20112;-68
2022/09/04 06:23:05;;;;;;;3.88;2.92;;;19.90;71.20;;;;;;5095328;28;20478;-72
2022/09/04 06:25:36;;;;;;;3.75;3.10;;;19.90;71.20;;;;;;5093951;28;20173;-68
2022/09/04 06:28:28;;;;;;;4.28;3.50;;;19.90;71.40;;;;;;5104049;28;20484;-68
2022/09/04 06:31:03;;;;;;;5.75;3.85;;;20.00;71.30;;;;;;5065324;28;20040;-68
2022/09/04 06:33:55;;;;;;;4.88;3.35;;;20.00;71.50;;;;;;5105216;28;20051;-68
2022/09/04 06:36:45;;;;;;;5.57;3.63;;;20.10;71.50;;;;;;5102753;28;20467;-72
2022/09/04 06:39:41;;;;;;;5.38;3.88;;;20.10;71.50;;;;;;5088849;28;20024;-73
2022/09/04 06:42:41;;;;;;;5.15;3.90;;;20.20;71.50;;;;;;5091230;28;20016;-72
2022/09/04 06:45:22;;;;;;;5.95;4.07;;;20.30;71.50;;;;;;5090867;28;20466;-68
2022/09/04 06:47:50;;;;;;;3.17;2.88;;;20.40;71.40;;;;;;5103117;28;20089;-73
2022/09/04 06:50:45;;;;;;;6.85;3.33;;;20.40;71.20;;;;;;5091756;28;20028;-73
2022/09/04 06:53:26;;;;;;;6.57;3.88;;;20.50;71.20;;;;;;5093253;28;20128;-73
2022/09/04 06:56:30;;;;;;;4.97;3.30;;;20.60;71.30;;;;;;5095941;28;20096;-72
2022/09/04 06:58:56;;;;;;;3.30;2.17;;;20.60;71.20;;;;;;5059922;28;20051;-72
2022/09/04 07:01:59;;;;;;;3.83;3.00;;;20.70;71.30;;;;;;5091676;28;20044;-68
2022/09/04 07:05:09;;;;;;;3.72;2.25;;;20.80;71.00;;;;;;5089673;28;20116;-72
2022/09/04 07:07:58;;;;;;;4.55;3.60;;;20.90;70.80;;;;;;5093532;28;20024;-72
2022/09/04 07:10:39;;;;;;;3.92;3.17;;;21.00;70.60;;;;;;5054465;28;20047;-72
2022/09/04 07:13:31;;;;;;;3.42;2.63;;;21.10;70.70;;;;;;5091769;28;20020;-73
2022/09/04 07:16:00;;;;;;;4.10;3.67;;;21.20;70.50;;;;;;5087976;28;20073;-69
2022/09/04 07:19:19;;;;;;;3.45;2.53;;;21.30;70.10;;;;;;5089554;28;20435;-68
2022/09/04 07:22:15;;;;;;;4.15;3.42;;;21.50;69.90;;;;;;5012385;28;20029;-69
2022/09/04 07:25:12;;;;;;;3.28;2.92;;;21.60;69.70;;;;;;5087078;28;20386;-68
2022/09/04 07:27:51;;;;;;;3.53;3.05;;;21.70;69.50;;;;;;5084830;28;20473;-68
2022/09/04 07:30:18;;;;;;;3.28;2.97;;;21.70;69.30;;;;;;5094829;28;20503;-69
2022/09/04 07:33:08;;;;;;;3.40;2.35;;;21.90;69.00;;;;;;5086393;28;20024;-68
2022/09/04 07:36:07;;;;;;;4.50;2.55;;;22.00;68.80;;;;;;5087050;28;20036;-68
2022/09/04 07:39:03;;;;;;;4.30;3.08;;;22.00;68.60;;;;;;5081919;28;20135;-68
2022/09/04 07:41:58;;;;;;;3.50;3.03;;;22.10;68.50;;;;;;5090555;28;20027;-72
2022/09/04 07:44:45;;;;;;;4.05;3.10;;;22.20;68.40;;;;;;5090823;28;20486;-72
2022/09/04 07:47:12;;;;;;;3.95;2.70;;;22.20;68.20;;;;;;5090618;28;20028;-68
2022/09/04 07:50:10;;;;;;;7.25;2.53;;;22.20;68.00;;;;;;5098150;28;20466;-71
2022/09/04 07:52:41;;;;;;;3.35;2.42;;;22.30;67.90;;;;;;5097330;28;20030;-72
2022/09/04 07:55:10;;;;;;;4.07;3.30;;;22.20;67.90;;;;;;5098206;28;20036;-68
2022/09/04 07:57:57;;;;;;;3.95;2.88;;;22.20;68.10;;;;;;5092376;28;20113;-68
2022/09/04 08:00:25;;;;;;;4.65;3.38;;;22.20;68.00;;;;;;5087265;28;20036;-72
2022/09/04 08:03:33;;;;;;;4.30;2.97;;;22.10;68.30;;;;;;5085576;28;20031;-72
2022/09/04 08:06:08;;;;;;;2.40;2.20;;;22.20;68.30;;;;;;5082571;28;20043;-72
2022/09/04 08:09:09;;;;;;;3.35;2.55;;;22.30;68.10;;;;;;5087433;28;20025;-72
2022/09/04 08:11:44;;;;;;;2.38;2.17;;;22.50;67.70;;;;;;5083961;28;20120;-69
2022/09/04 08:14:26;;;;;;;3.50;2.35;;;22.70;67.50;;;;;;5086651;28;20036;-68
2022/09/04 08:17:23;;;;;;;3.50;2.22;;;22.80;67.00;;;;;;5084089;28;20032;-68
2022/09/04 08:20:12;;;;;;;2.67;2.45;;;22.90;66.80;;;;;;5087015;28;20019;-68
2022/09/04 08:23:03;;;;;;;2.95;1.33;;;23.10;66.60;;;;;;5091452;28;20368;-72
2022/09/04 08:25:52;;;;;;;2.75;2.15;;;23.30;66.00;;;;;;5092127;28;20374;-72
2022/09/04 08:28:55;;;;;;;2.92;2.28;;;23.30;65.80;;;;;;5093287;28;20050;-69
2022/09/04 08:31:41;;;;;;;2.63;2.15;;;23.50;65.70;;;;;;5089096;28;20035;-72
2022/09/04 08:34:26;;;;;;;1.95;1.48;;;23.60;65.60;;;;;;5084113;28;20498;-72
2022/09/04 08:37:24;;;;;;;2.60;1.88;;;23.70;65.40;;;;;;5090668;28;20110;-71
2022/09/04 08:39:50;;;;;;;2.67;2.05;;;23.70;65.30;;;;;;5050343;28;20590;-71
2022/09/04 08:42:46;;;;;;;1.80;1.58;;;23.80;65.10;;;;;;5098003;28;20020;-71
2022/09/04 08:45:51;;;;;;;2.40;1.77;;;23.90;64.80;;;;;;5090561;28;20016;-71
2022/09/04 08:48:53;;;;;;;1.83;1.63;;;24.00;64.50;;;;;;5092047;28;20568;-67
2022/09/04 08:51:22;;;;;;;1.33;1.13;;;24.20;64.30;;;;;;5087495;28;20106;-67
2022/09/04 08:54:19;;;;;;;1.95;1.30;;;24.30;63.90;;;;;;5087005;28;20024;-67
2022/09/04 08:56:56;;;;;;;2.17;1.60;;;24.40;63.50;;;;;;5085483;28;20051;-71
2022/09/04 08:59:59;;;;;;;4.00;1.95;;;24.50;63.40;;;;;;5101913;28;20110;-67
2022/09/04 09:02:43;;;;;;;1.50;1.40;;;24.60;63.00;;;;;;5083876;28;20020;-67
2022/09/04 09:05:36;;;;;;;1.95;1.75;;;24.70;62.80;;;;;;5088392;28;20024;-67
2022/09/04 09:08:29;;;;;;;3.40;1.65;;;24.80;62.60;;;;;;5090981;28;20039;-71
2022/09/04 09:11:16;;;;;;;1.85;1.25;;;24.90;62.40;;;;;;5082405;28;20429;-67
2022/09/04 09:14:20;;;;;;;3.35;1.77;;;25.00;61.80;;;;;;5085433;28;20433;-67
2022/09/04 09:17:15;;;;;;;1.50;1.40;;;25.10;61.80;;;;;;5089955;28;20035;-68
2022/09/04 09:20:26;;;;;;;1.20;1.10;;;25.10;61.60;;;;;;5125340;27;20019;-68
2022/09/04 09:23:12;;;;;;;2.67;2.08;;;25.30;61.30;;;;;;4991119;28;20029;-67
2022/09/04 09:26:15;;;;;;;3.08;1.38;;;25.40;60.90;;;;;;5007301;28;20026;-68
2022/09/04 09:29:18;;;;;;;1.90;1.58;;;25.50;60.50;;;;;;5091042;28;20070;-71
2022/09/04 09:32:11;;;;;;;2.03;1.20;;;25.60;60.40;;;;;;5104061;28;20621;-71
2022/09/04 09:35:08;;;;;;;1.88;1.35;;;25.70;60.20;;;;;;5097850;28;20390;-71
2022/09/04 09:38:00;;;;;;;2.38;1.90;;;25.90;59.90;;;;;;5100821;28;20058;-71
2022/09/04 09:41:05;;;;;;;2.75;1.15;;;26.10;59.40;;;;;;5100293;28;20434;-72
2022/09/04 09:44:02;;;;;;;2.47;1.50;;;26.30;59.20;;;;;;5100732;28;20475;-71
2022/09/04 09:46:42;;;;;;;1.90;1.52;;;26.50;58.80;;;;;;5096582;28;20395;-72
2022/09/04 09:49:13;;;;;;;2.78;2.05;;;26.70;58.30;;;;;;5102261;28;20496;-71
2022/09/04 09:52:14;;;;;;;1.45;1.30;;;26.80;57.90;;;;;;5095243;28;20156;-71
2022/09/04 09:55:17;;;;;;;1.52;1.13;;;27.10;57.80;;;;;;5033337;28;20083;-67
2022/09/04 09:58:10;;;;;;;2.28;1.23;;;27.20;57.20;;;;;;5090720;28;20048;-68
2022/09/04 10:01:20;;;;;;;1.88;1.38;;;27.30;56.20;;;;;;5091982;28;20020;-68
2022/09/04 10:04:47;;;;;;;1.30;1.02;;;27.30;56.30;;;;;;5093121;28;20020;-67
2022/09/04 10:07:48;;;;;;;2.22;1.35;;;27.50;56.30;;;;;;5092479;28;20158;-68
2022/09/04 10:10:52;;;;;;;1.15;0.90;;;27.70;55.90;;;;;;5009834;28;20511;-68
2022/09/04 10:13:24;;;;;;;1.63;1.52;;;27.90;55.80;;;;;;5070053;28;20137;-72
2022/09/04 10:16:13;;;;;;;1.30;1.20;;;28.00;54.70;;;;;;5095882;28;20411;-73
2022/09/04 10:19:15;;;;;;;1.90;1.20;;;28.20;54.70;;;;;;5096261;28;20032;-72
2022/09/04 10:22:22;;;;;;;2.10;1.57;;;28.20;53.60;;;;;;5092796;28;20427;-73
2022/09/04 10:25:12;;;;;;;2.50;0.88;;;28.20;53.40;;;;;;5092396;28;20313;-73
2022/09/04 10:28:02;;;;;;;0.82;0.80;;;28.30;53.30;;;;;;5094721;28;20016;-73
2022/09/04 10:30:47;;;;;;;1.42;1.33;;;28.40;53.10;;;;;;5097873;28;20099;-73
2022/09/04 10:33:30;;;;;;;1.20;0.80;;;28.40;52.60;;;;;;5093664;28;20031;-73
2022/09/04 10:36:08;;;;;;;1.27;0.98;;;28.40;52.40;;;;;;5095370;28;20024;-73
2022/09/04 10:38:37;;;;;;;1.55;1.10;;;28.60;52.30;;;;;;5097614;28;20444;-68
2022/09/04 10:41:37;;;;;;;1.15;1.02;;;28.80;51.80;;;;;;5090577;28;20020;-69
2022/09/04 10:44:35;;;;;;;0.80;0.80;;;29.10;51.90;;;;;;5077559;28;20123;-68
2022/09/04 10:47:07;;;;;;;1.15;1.00;;;29.30;51.50;;;;;;5079679;28;20024;-69
2022/09/04 10:50:06;;;;;;;1.52;0.98;;;29.50;51.20;;;;;;5090237;28;20119;-69
2022/09/04 10:53:24;;;;;;;1.27;1.17;;;29.80;50.90;;;;;;5083993;28;20047;-72
2022/09/04 10:56:01;;;;;;;1.10;0.88;;;30.00;50.10;;;;;;5068971;27;20062;-72
2022/09/04 10:58:49;;;;;;;1.60;1.00;;;30.10;48.80;;;;;;5089510;28;20047;-73
2022/09/04 11:01:47;;;;;;;1.23;0.85;;;30.10;48.60;;;;;;5083939;28;20479;-69
2022/09/04 11:05:05;;;;;;;0.65;0.65;;;30.00;48.00;;;;;;5059789;28;20036;-69
2022/09/04 11:08:00;;;;;;;0.70;0.70;;;30.10;48.50;;;;;;5053578;28;20557;-69
2022/09/04 11:10:59;;;;;;;0.90;0.90;;;30.60;48.30;;;;;;5068342;28;20052;-69
2022/09/04 11:13:49;;;;;;;0.70;0.70;;;30.60;47.50;;;;;;5085952;28;20125;-69
2022/09/04 11:16:34;;;;;;;1.67;1.48;;;30.40;48.00;;;;;;5092633;28;20028;-73
2022/09/04 11:19:21;;;;;;;1.33;1.23;;;30.50;47.60;;;;;;5085517;28;20090;-69
2022/09/04 11:21:49;;;;;;;1.50;1.05;;;30.60;47.20;;;;;;5090634;28;20031;-69
2022/09/04 11:24:37;;;;;;;0.77;0.77;;;30.90;47.10;;;;;;5084734;28;20038;-68
2022/09/04 11:27:02;;;;;;;4.55;0.80;;;31.00;47.00;;;;;;5086544;28;20467;-68
2022/09/04 11:29:40;;;;;;;1.77;1.30;;;31.00;46.80;;;;;;5089258;28;20093;-69
2022/09/04 11:32:55;;;;;;;1.00;1.00;;;31.00;46.20;;;;;;5086258;28;20027;-69
2022/09/04 11:35:51;;;;;;;0.80;0.80;;;30.70;45.90;;;;;;5069985;28;20066;-69
2022/09/04 11:38:50;;;;;;;1.48;1.30;;;30.50;46.30;;;;;;5077616;28;20024;-69
2022/09/04 11:41:31;;;;;;;1.02;0.73;;;30.30;46.40;;;;;;5081214;28;20020;-68
2022/09/04 11:44:19;;;;;;;1.50;1.17;;;30.10;47.00;;;;;;5080547;28;20024;-69
2022/09/04 11:47:06;;;;;;;0.88;0.88;;;30.00;47.40;;;;;;5086681;28;20017;-68
2022/09/04 11:50:03;;;;;;;1.05;1.00;;;29.80;47.00;;;;;;5085729;28;20084;-72
2022/09/04 11:52:49;;;;;;;2.33;1.38;;;29.70;47.40;;;;;;5078452;28;20036;-73
2022/09/04 11:55:27;;;;;;;1.30;1.20;;;29.60;47.80;;;;;;5081177;28;20039;-73
2022/09/04 11:58:27;;;;;;;1.25;1.05;;;29.80;47.60;;;;;;5073718;28;20046;-73
2022/09/04 12:01:15;;;;;;;0.70;0.70;;;30.20;47.00;;;;;;5075353;28;20101;-72
2022/09/04 12:04:13;;;;;;;1.65;0.88;;;30.40;45.90;;;;;;5080741;28;20012;-73
2022/09/04 12:06:46;;;;;;;1.38;0.95;;;30.20;46.30;;;;;;5080162;28;20028;-73
2022/09/04 12:09:21;;;;;;;2.38;0.90;;;30.00;46.20;;;;;;5080434;28;20032;-73
2022/09/04 12:12:21;;;;;;;5.30;1.20;;;29.80;46.30;;;;;;5081487;28;20023;-73
2022/09/04 12:15:02;;;;;;;1.02;0.98;;;29.70;46.60;;;;;;5084951;28;20020;-73
2022/09/04 12:17:33;;;;;;;1.67;0.90;;;29.90;46.90;;;;;;5085534;28;20036;-73
2022/09/04 12:20:32;;;;;;;0.65;0.65;;;30.30;45.90;;;;;;5077949;28;20025;-73
2022/09/04 12:23:17;;;;;;;0.90;0.82;;;30.90;45.50;;;;;;5087110;28;20165;-69
2022/09/04 12:26:31;;;;;;;1.02;1.02;;;31.20;45.00;;;;;;5078678;28;20031;-69
2022/09/04 12:29:18;;;;;;;0.70;0.70;;;31.30;44.50;;;;;;5051050;28;20040;-69
2022/09/04 12:32:41;;;;;;;1.38;1.13;;;31.20;44.80;;;;;;5080832;28;20043;-69
2022/09/04 12:35:22;;;;;;;0.77;0.77;;;30.90;44.80;;;;;;4995710;28;20604;-68
2022/09/04 12:38:00;;;;;;;0.80;0.77;;;30.70;45.20;;;;;;5000572;28;20038;-73
2022/09/04 12:40:28;;;;;;;1.25;0.95;;;30.50;45.50;;;;;;5060870;28;20563;-73
2022/09/04 12:43:21;;;;;;;1.00;1.00;;;30.40;45.60;;;;;;5083829;28;20081;-69
2022/09/04 12:46:13;;;;;;;1.15;0.90;;;30.30;45.70;;;;;;5076663;28;20139;-69
2022/09/04 12:48:41;;;;;;;1.23;1.13;;;30.20;46.00;;;;;;5115157;27;20027;-69
2022/09/04 12:51:13;;;;;;;1.15;0.82;;;30.20;45.90;;;;;;5084016;28;20032;-69
2022/09/04 12:53:45;;;;;;;0.85;0.85;;;30.20;46.00;;;;;;5068667;28;20024;-69
2022/09/04 12:56:42;;;;;;;1.08;0.95;;;30.20;46.00;;;;;;5082148;28;20407;-69
2022/09/04 12:59:37;;;;;;;0.80;0.80;;;30.30;46.00;;;;;;5070463;28;20039;-69
2022/09/04 13:02:36;;;;;;;1.13;1.05;;;30.40;45.90;;;;;;5075192;28;20028;-73
2022/09/04 13:05:30;;;;;;;1.02;0.93;;;30.50;45.70;;;;;;5080510;28;20498;-72
2022/09/04 13:08:18;;;;;;;0.80;0.80;;;30.60;45.60;;;;;;5079250;28;20433;-72
2022/09/04 13:10:52;;;;;;;1.10;1.00;;;30.90;44.60;;;;;;5086828;28;20035;-72
2022/09/04 13:13:41;;;;;;;3.72;1.05;;;31.10;44.40;;;;;;5090940;28;20035;-72
2022/09/04 13:16:12;;;;;;;0.80;0.80;;;31.50;44.10;;;;;;5084068;28;20024;-73
2022/09/04 13:18:49;;;;;;;0.73;0.73;;;31.80;42.80;;;;;;5086170;28;20470;-72
2022/09/04 13:21:43;;;;;;;1.23;1.02;;;31.90;42.40;;;;;;5083531;28;20028;-73
2022/09/04 13:24:24;;;;;;;1.65;0.60;;;32.10;42.00;;;;;;5089031;28;20027;-72
2022/09/04 13:26:55;;;;;;;0.77;0.77;;;32.10;41.90;;;;;;5088354;28;20123;-72
2022/09/04 13:29:34;;;;;;;;;;;31.90;41.50;;;;;;5088229;28;20103;-73
2022/09/04 13:32:14;;;;;;;1.05;0.98;;;31.80;42.00;;;;;;5095002;28;19912;-73
2022/09/04 13:35:08;;;;;;;2.30;0.90;;;31.60;42.10;;;;;;5080988;28;20096;-73
2022/09/04 13:38:04;;;;;;;0.77;0.77;;;31.60;42.30;;;;;;5064149;28;20046;-68
2022/09/04 13:40:59;;;;;;;1.05;0.85;;;31.80;42.10;;;;;;5074925;28;20016;-73
2022/09/04 13:43:42;;;;;;;1.20;1.10;;;31.70;41.70;;;;;;5091070;28;20343;-72
2022/09/04 13:46:17;;;;;;;0.90;0.90;;;31.40;42.00;;;;;;5087555;28;20089;-72
2022/09/04 13:48:53;;;;;;;1.20;0.70;;;31.50;42.30;;;;;;5080760;28;20029;-72
2022/09/04 13:51:28;;;;;;;0.75;0.70;;;31.60;42.30;;;;;;5080617;28;20036;-72
2022/09/04 13:54:18;;;;;;;0.73;0.68;;;31.90;42.30;;;;;;5082290;28;20093;-72
2022/09/04 13:57:14;;;;;;;0.80;0.80;;;32.10;42.00;;;;;;5077976;28;20079;-72
2022/09/04 13:59:43;;;;;;;0.90;0.90;;;32.10;41.80;;;;;;5073921;28;20052;-68
2022/09/04 14:02:12;;;;;;;0.80;0.80;;;31.90;42.10;;;;;;5081971;28;20559;-68
2022/09/04 14:04:44;;;;;;;0.70;0.70;;;31.80;42.60;;;;;;5080861;28;20016;-72
2022/09/04 14:07:23;;;;;;;0.90;0.80;;;31.60;42.70;;;;;;5086033;28;20067;-72
2022/09/04 14:09:54;;;;;;;1.00;0.75;;;31.40;42.90;;;;;;5084005;28;20027;-72
2022/09/04 14:12:26;;;;;;;0.70;0.70;;;31.20;43.20;;;;;;5085151;28;20028;-72
2022/09/04 14:15:12;;;;;;;2.03;0.77;;;31.20;43.40;;;;;;5085181;28;20524;-72
2022/09/04 14:18:04;;;;;;;0.70;0.60;;;31.20;43.50;;;;;;5091833;28;20036;-73
2022/09/04 14:20:58;;;;;;;0.93;0.77;;;31.40;43.30;;;;;;5081255;28;20066;-72
2022/09/04 14:24:02;;;;;;;0.77;0.77;;;31.70;42.40;;;;;;5079718;28;20374;-69
2022/09/04 14:26:46;;;;;;;0.63;0.63;;;31.70;42.60;;;;;;5078069;28;20024;-68
2022/09/04 14:29:43;;;;;;;0.98;0.60;;;31.90;42.50;;;;;;5075507;28;20031;-72